Time;durP1;ratioP1;P1;durP2;ratioP2;P2;SDS_P1;SDS_P2;PMS_P1;PMS_P2;Temp;Humidity;BMP_temperature;BMP_pressure;BME280_temperature;BME280_humidity;BME280_pressure;Samples;Min_cycle;Max_cycle;Signal;HPM_P1;HPM_P2
2022/12/15 00:41:00;;;;;;;0.00;0.00;;;;;;;4.92;65.47;94360.06;5009337;28;20202;-63
2022/12/15 00:43:28;;;;;;;0.50;0.50;;;;;;;4.56;65.97;94357.03;5004062;28;20218;-64
2022/12/15 00:48:42;;;;;;;0.20;0.20;;;;;;;4.67;65.73;94338.81;5010534;28;20201;-63
2022/12/15 00:51:09;;;;;;;1.33;1.08;;;;;;;4.89;65.22;94321.56;5002044;28;20230;-63
2022/12/15 01:21:15;;;;;;;0.00;0.00;;;;;;;5.08;65.60;94268.41;5004949;28;20205;-63
2022/12/15 01:23:42;;;;;;;0.00;0.00;;;;;;;4.67;67.00;94292.09;5006247;28;20646;-63
2022/12/15 01:26:09;;;;;;;1.08;0.43;;;;;;;5.06;65.87;94288.63;4995739;28;20725;-62
2022/12/15 01:28:35;;;;;;;0.73;0.50;;;;;;;5.11;65.91;94267.94;5006352;28;20247;-61
2022/12/15 01:31:10;;;;;;;0.00;0.00;;;;;;;5.23;65.72;94285.22;5007149;28;20213;-61
2022/12/15 01:33:38;;;;;;;0.00;0.00;;;;;;;5.20;65.91;94270.13;5004017;28;20566;-62
2022/12/15 01:36:06;;;;;;;4.35;1.65;;;;;;;5.23;65.53;94295.63;5003439;28;20206;-61
2022/12/15 01:38:32;;;;;;;1.10;1.00;;;;;;;5.33;65.38;94311.38;5006739;28;20264;-61
2022/12/15 01:41:06;;;;;;;1.08;1.02;;;;;;;5.07;66.50;94290.19;5006546;28;20229;-61
2022/12/15 01:43:35;;;;;;;0.10;0.10;;;;;;;5.25;65.47;94298.78;5006805;28;20222;-61
2022/12/15 01:46:07;;;;;;;0.20;0.20;;;;;;;5.43;65.29;94285.53;4995698;28;20203;-60
2022/12/15 01:48:54;;;;;;;0.00;0.00;;;;;;;5.09;66.13;94264.78;5000630;28;20296;-60
2022/12/15 01:51:38;;;;;;;0.00;0.00;;;;;;;5.21;65.71;94293.28;5005181;28;20217;-61
2022/12/15 01:54:17;;;;;;;1.27;1.02;;;;;;;5.28;65.58;94277.50;5000340;28;20206;-61
2022/12/15 01:56:48;;;;;;;0.70;0.70;;;;;;;5.52;65.40;94258.13;5002703;28;20201;-61
2022/12/15 01:59:19;;;;;;;0.13;0.13;;;;;;;4.61;67.76;94269.72;4998741;28;20298;-61
2022/12/15 02:01:46;;;;;;;0.40;0.40;;;;;;;4.69;68.37;94243.38;4991864;28;20204;-61
2022/12/15 02:04:19;;;;;;;0.00;0.00;;;;;;;4.99;67.31;94228.28;5000094;28;20702;-62
2022/12/15 02:06:45;;;;;;;0.63;0.63;;;;;;;4.98;67.25;94213.72;4997479;28;20233;-61
2022/12/15 02:09:14;;;;;;;1.45;0.65;;;;;;;4.71;67.69;94223.16;5005975;28;20268;-61
2022/12/15 02:11:40;;;;;;;0.20;0.20;;;;;;;4.68;67.99;94213.25;5001072;28;20203;-61
2022/12/15 02:14:10;;;;;;;2.15;1.95;;;;;;;4.67;67.89;94231.66;4993720;28;20241;-61
2022/12/15 02:16:42;;;;;;;1.40;1.27;;;;;;;4.59;68.91;94242.41;4997606;28;20256;-62
2022/12/15 02:19:47;;;;;;;5.65;1.50;;;;;;;4.87;68.14;94234.59;4999306;28;20229;-62
2022/12/15 02:22:33;;;;;;;0.00;0.00;;;;;;;4.41;69.58;94167.41;4984189;28;20202;-62
2022/12/15 02:25:27;;;;;;;0.55;0.55;;;;;;;4.28;69.65;94212.59;4999328;28;20325;-62
2022/12/15 02:28:05;;;;;;;0.00;0.00;;;;;;;4.45;69.40;94189.28;4998127;28;20229;-61
2022/12/15 02:30:41;;;;;;;0.28;0.28;;;;;;;4.63;69.02;94187.25;4997716;28;20194;-61
2022/12/15 02:33:25;;;;;;;0.85;0.85;;;;;;;4.83;67.93;94177.19;5000539;28;20234;-61
2022/12/15 02:35:58;;;;;;;0.52;0.52;;;;;;;4.95;67.54;94190.03;5002790;28;20199;-63
2022/12/15 02:38:37;;;;;;;0.15;0.15;;;;;;;5.07;66.78;94199.31;4999885;28;20202;-63
2022/12/15 02:41:05;;;;;;;0.17;0.17;;;;;;;4.95;67.84;94206.41;4994479;28;20210;-62
2022/12/15 02:43:36;;;;;;;0.00;0.00;;;;;;;4.98;67.30;94182.56;5000451;28;20221;-62
2022/12/15 02:46:15;;;;;;;0.00;0.00;;;;;;;4.93;67.13;94185.09;4999811;28;20210;-62
2022/12/15 02:49:08;;;;;;;1.17;0.47;;;;;;;4.71;68.02;94207.59;5002051;28;20272;-61
2022/12/15 02:51:59;;;;;;;0.30;0.15;;;;;;;4.67;67.73;94203.88;5004442;28;20220;-61
2022/12/15 02:54:31;;;;;;;0.00;0.00;;;;;;;4.54;68.89;94240.53;5007544;28;20256;-63
2022/12/15 02:57:17;;;;;;;3.22;0.73;;;;;;;4.83;67.71;94239.47;5007734;28;20910;-61
2022/12/15 02:59:57;;;;;;;0.10;0.10;;;;;;;4.85;68.39;94234.03;5004623;28;20198;-64
2022/12/15 03:02:27;;;;;;;0.00;0.00;;;;;;;4.87;68.13;94224.97;5004290;28;20686;-62
2022/12/15 03:04:55;;;;;;;0.00;0.00;;;;;;;4.69;68.88;94214.06;4995941;28;20269;-62
2022/12/15 03:07:26;;;;;;;0.28;0.28;;;;;;;4.87;68.12;94229.41;4995912;28;20193;-62
2022/12/15 03:09:58;;;;;;;0.45;0.32;;;;;;;4.87;68.62;94242.38;5002798;28;20201;-62
2022/12/15 03:12:26;;;;;;;0.00;0.00;;;;;;;4.73;67.83;94221.13;4999073;28;20194;-63
2022/12/15 03:14:53;;;;;;;0.00;0.00;;;;;;;4.80;68.22;94208.78;5002172;28;20574;-62
2022/12/15 03:17:20;;;;;;;1.95;0.60;;;;;;;4.85;68.10;94221.81;5004940;28;20271;-61
2022/12/15 03:19:47;;;;;;;0.00;0.00;;;;;;;4.67;68.08;94211.66;5007573;28;20228;-63
2022/12/15 03:22:15;;;;;;;0.17;0.15;;;;;;;4.88;67.49;94226.56;4997132;28;20301;-62
2022/12/15 03:24:42;;;;;;;0.00;0.00;;;;;;;4.70;68.91;94219.00;5004436;28;20767;-62
2022/12/15 03:27:09;;;;;;;0.20;0.20;;;;;;;5.08;67.58;94210.50;4991029;28;20227;-62
2022/12/15 03:29:37;;;;;;;2.85;1.33;;;;;;;5.12;66.38;94212.38;4996497;28;20206;-63
2022/12/15 03:32:04;;;;;;;0.35;0.35;;;;;;;5.04;66.62;94212.78;4991295;28;20298;-62
2022/12/15 03:34:31;;;;;;;0.00;0.00;;;;;;;4.99;67.07;94232.69;4999662;28;20201;-62
2022/12/15 03:36:58;;;;;;;0.20;0.20;;;;;;;5.21;66.40;94214.56;4999710;28;20285;-62
2022/12/15 03:39:24;;;;;;;0.00;0.00;;;;;;;5.23;65.58;94212.53;5002026;28;20685;-65
2022/12/15 03:41:51;;;;;;;0.00;0.00;;;;;;;5.00;66.23;94222.06;4996925;28;20194;-63
2022/12/15 03:44:18;;;;;;;0.47;0.47;;;;;;;5.18;66.21;94206.22;4995020;28;20220;-64
2022/12/15 03:46:45;;;;;;;0.43;0.20;;;;;;;5.11;66.17;94210.81;4998879;28;20558;-63
2022/12/15 03:49:11;;;;;;;0.03;0.03;;;;;;;5.14;67.00;94217.34;5008284;28;20263;-62
2022/12/15 03:51:38;;;;;;;0.22;0.22;;;;;;;5.26;65.87;94245.78;5007202;28;20193;-62
2022/12/15 03:54:06;;;;;;;0.00;0.00;;;;;;;5.65;64.60;94243.00;5008513;28;20288;-64
2022/12/15 03:56:33;;;;;;;0.00;0.00;;;;;;;5.59;64.70;94248.34;5003005;28;20217;-61
2022/12/15 03:58:59;;;;;;;0.00;0.00;;;;;;;5.66;64.58;94251.53;4992945;28;20285;-61
2022/12/15 04:01:31;;;;;;;0.22;0.20;;;;;;;5.76;63.73;94243.91;4999565;28;20658;-63
2022/12/15 04:04:00;;;;;;;0.03;0.03;;;;;;;5.66;63.97;94251.53;5005074;28;20225;-63
2022/12/15 04:06:28;;;;;;;1.30;1.20;;;;;;;5.45;64.80;94271.28;4999841;28;20638;-63
2022/12/15 04:08:56;;;;;;;0.75;0.75;;;;;;;5.54;64.94;94271.66;5003943;28;20198;-64
2022/12/15 04:11:22;;;;;;;0.00;0.00;;;;;;;5.29;65.36;94263.53;4996856;28;20268;-62
2022/12/15 04:13:49;;;;;;;0.10;0.10;;;;;;;5.39;65.33;94279.22;4999531;28;20233;-62
2022/12/15 04:16:16;;;;;;;0.32;0.32;;;;;;;5.39;64.74;94297.41;5004177;28;20977;-63
2022/12/15 04:20:07;;;;;;;0.40;0.40;;;;;;;5.45;65.54;94283.50;5005196;28;20206;-63
2022/12/15 04:21:33;;;;;;;0.00;0.00;;;;;;;5.54;65.76;94282.06;5002348;28;20193;-62
2022/12/15 05:32:54;;;;;;;0.20;0.20;;;;;;;5.48;67.68;94373.94;5009272;28;20917;-65
2022/12/15 05:35:22;;;;;;;0.10;0.10;;;;;;;5.70;67.36;94367.00;5009084;28;20206;-65
2022/12/15 05:37:48;;;;;;;0.32;0.32;;;;;;;6.00;66.05;94393.47;5009384;28;20194;-63
2022/12/15 05:40:15;;;;;;;0.05;0.05;;;;;;;5.85;66.82;94390.66;5009805;28;20210;-67
2022/12/15 05:42:42;;;;;;;0.50;0.50;;;;;;;5.90;66.28;94401.13;5009217;28;20198;-65
2022/12/15 05:45:15;;;;;;;4.68;1.30;;;;;;;5.77;66.43;94401.41;5009385;28;20216;-65
2022/12/15 05:47:42;;;;;;;1.60;1.30;;;;;;;5.62;66.79;94422.00;5008926;28;20708;-69
2022/12/15 05:50:09;;;;;;;0.25;0.25;;;;;;;5.75;66.82;94414.66;5009075;28;20212;-65
2022/12/15 05:52:36;;;;;;;0.15;0.15;;;;;;;5.54;67.19;94427.56;5008041;28;20194;-65
2022/12/15 05:55:03;;;;;;;4.15;0.90;;;;;;;5.24;67.74;94432.28;5004576;28;20665;-66
2022/12/15 05:57:29;;;;;;;0.28;0.28;;;;;;;5.49;67.21;94448.28;5009003;28;20226;-65
2022/12/15 05:59:56;;;;;;;0.80;0.70;;;;;;;5.50;67.18;94457.63;5008747;28;20202;-66
2022/12/15 06:02:23;;;;;;;14.35;4.68;;;;;;;5.19;68.10;94451.13;5008408;28;20623;-64
2022/12/15 06:04:50;;;;;;;0.00;0.00;;;;;;;5.27;67.93;94463.75;5008303;28;20232;-65
2022/12/15 06:07:18;;;;;;;0.30;0.30;;;;;;;5.12;68.50;94481.66;5008941;28;20980;-65
2022/12/15 06:09:45;;;;;;;0.32;0.32;;;;;;;4.79;69.56;94484.13;5008831;28;20236;-67
2022/12/15 06:12:12;;;;;;;0.00;0.00;;;;;;;5.25;70.50;94480.59;5005679;28;20251;-67
2022/12/15 06:14:38;;;;;;;0.20;0.20;;;;;;;5.18;68.84;94455.53;5008606;28;20303;-68
2022/12/15 06:17:05;;;;;;;1.02;1.02;;;;;;;5.29;69.83;94481.69;5009146;28;20194;-65
2022/12/15 06:19:32;;;;;;;1.23;1.23;;;;;;;5.11;69.72;94499.03;5003461;28;20288;-65
2022/12/15 06:21:59;;;;;;;6.38;1.60;;;;;;;5.32;68.87;94486.41;5008441;28;20193;-65
2022/12/15 06:24:26;;;;;;;0.45;0.40;;;;;;;5.72;67.30;94482.72;5008084;28;20264;-64
2022/12/15 06:26:53;;;;;;;0.00;0.00;;;;;;;5.76;66.89;94490.84;5008551;28;20217;-65
2022/12/15 06:29:19;;;;;;;0.95;0.95;;;;;;;5.81;67.96;94514.31;5002930;28;20619;-65
2022/12/15 06:31:46;;;;;;;0.82;0.82;;;;;;;5.51;67.27;94500.81;5002703;28;20241;-67
2022/12/15 06:34:15;;;;;;;0.15;0.15;;;;;;;5.63;67.65;94491.94;5004825;28;20271;-71
2022/12/15 06:36:43;;;;;;;1.13;0.50;;;;;;;5.61;67.39;94503.56;5001307;28;20198;-67
2022/12/15 06:39:12;;;;;;;0.32;0.32;;;;;;;5.46;67.54;94495.50;5003339;28;20638;-66
2022/12/15 06:41:40;;;;;;;0.00;0.00;;;;;;;5.18;68.31;94516.28;5005543;28;20208;-66
2022/12/15 06:44:06;;;;;;;0.55;0.40;;;;;;;5.52;67.38;94531.75;5005856;28;20747;-67
2022/12/15 06:46:33;;;;;;;0.20;0.20;;;;;;;5.16;68.51;94525.09;5003368;28;20216;-65
2022/12/15 06:49:00;;;;;;;3.25;1.67;;;;;;;4.94;68.96;94526.75;5008659;28;20190;-67
2022/12/15 06:51:27;;;;;;;10.82;2.33;;;;;;;5.18;68.93;94523.06;5002909;28;20586;-67
2022/12/15 06:53:55;;;;;;;10.05;0.80;;;;;;;5.27;69.24;94526.09;5005713;28;20197;-66
2022/12/15 06:56:31;;;;;;;1.13;1.02;;;;;;;5.14;69.25;94527.16;5008173;28;20181;-66
2022/12/15 06:59:02;;;;;;;2.92;1.67;;;;;;;5.41;68.58;94539.59;4996851;28;20272;-66
2022/12/15 07:01:30;;;;;;;0.85;0.85;;;;;;;5.40;68.97;94546.56;4994141;28;20199;-67
2022/12/15 07:04:00;;;;;;;0.82;0.75;;;;;;;5.79;67.46;94539.75;5003740;28;20645;-67
2022/12/15 07:06:33;;;;;;;0.55;0.55;;;;;;;5.60;67.89;94531.34;4999641;28;20249;-69
2022/12/15 07:09:01;;;;;;;1.23;1.20;;;;;;;5.69;68.09;94555.19;5000888;28;20252;-65
2022/12/15 07:11:27;;;;;;;0.20;0.20;;;;;;;5.27;68.40;94546.06;5002032;28;20194;-66
2022/12/15 07:13:54;;;;;;;0.30;0.30;;;;;;;5.41;68.47;94555.16;5001986;28;20238;-67
2022/12/15 07:16:21;;;;;;;0.32;0.32;;;;;;;5.66;68.24;94560.81;5002508;28;20611;-66
2022/12/15 07:18:49;;;;;;;0.85;0.85;;;;;;;6.01;67.73;94558.88;5005052;28;20655;-68
2022/12/15 07:21:16;;;;;;;0.43;0.43;;;;;;;5.94;67.50;94553.03;5000678;28;20191;-67
2022/12/15 07:23:44;;;;;;;0.57;0.57;;;;;;;5.58;68.41;94569.00;5001714;28;20582;-67
2022/12/15 07:26:21;;;;;;;0.88;0.88;;;;;;;5.44;69.08;94567.72;4996702;28;20226;-67
2022/12/15 07:28:48;;;;;;;3.10;2.72;;;;;;;5.85;67.45;94581.25;5004944;28;20193;-68
2022/12/15 07:31:15;;;;;;;1.65;1.00;;;;;;;5.78;67.60;94584.97;4999820;28;20233;-66
2022/12/15 07:33:42;;;;;;;0.47;0.47;;;;;;;5.89;67.48;94589.38;5007546;28;20574;-66
2022/12/15 07:36:09;;;;;;;0.30;0.30;;;;;;;6.11;67.28;94587.69;4999408;28;20217;-66
2022/12/15 07:38:37;;;;;;;0.47;0.47;;;;;;;6.35;65.82;94596.88;5003827;28;20221;-68
2022/12/15 07:41:05;;;;;;;0.30;0.30;;;;;;;6.39;65.86;94592.78;5004626;28;20236;-69
2022/12/15 07:43:33;;;;;;;0.30;0.30;;;;;;;6.41;65.43;94589.97;5000829;28;20194;-66
2022/12/15 07:46:02;;;;;;;0.90;0.55;;;;;;;6.59;66.17;94598.31;5006096;28;20621;-69
2022/12/15 07:48:30;;;;;;;1.17;1.10;;;;;;;6.31;66.92;94601.00;5005045;28;20224;-67
2022/12/15 07:50:58;;;;;;;0.75;0.75;;;;;;;6.43;66.33;94583.50;5003568;28;20253;-66
2022/12/15 07:53:36;;;;;;;2.63;0.60;;;;;;;6.72;65.65;94598.00;5002783;28;20205;-66
2022/12/15 07:56:05;;;;;;;0.00;0.00;;;;;;;6.41;66.26;94608.97;5007647;28;20289;-66
2022/12/15 07:58:36;;;;;;;1.67;1.58;;;;;;;6.48;66.87;94612.19;5004740;28;20260;-67
2022/12/15 08:01:05;;;;;;;0.40;0.40;;;;;;;6.78;66.21;94625.69;4999531;28;20612;-66
2022/12/15 08:03:33;;;;;;;0.40;0.40;;;;;;;6.98;65.74;94623.38;4999610;28;20190;-66
2022/12/15 08:06:06;;;;;;;0.65;0.65;;;;;;;6.68;67.04;94633.34;5004618;28;20236;-67
2022/12/15 08:08:33;;;;;;;0.43;0.43;;;;;;;6.74;66.94;94640.22;4999988;28;20190;-67
2022/12/15 08:11:09;;;;;;;0.10;0.10;;;;;;;6.85;66.16;94647.16;4997358;28;20218;-67
2022/12/15 08:13:37;;;;;;;11.63;0.77;;;;;;;7.07;65.23;94637.56;4999444;28;20238;-66
2022/12/15 08:16:24;;;;;;;0.63;0.45;;;;;;;7.08;65.49;94623.50;4998499;28;20186;-67
2022/12/15 08:18:52;;;;;;;0.88;0.82;;;;;;;6.57;65.86;94626.41;4999125;28;20232;-67
2022/12/15 08:21:19;;;;;;;1.00;1.00;;;;;;;6.92;65.29;94636.56;5003528;28;20201;-68
2022/12/15 08:23:46;;;;;;;1.77;1.65;;;;;;;7.14;64.43;94627.78;4997171;28;20195;-66
2022/12/15 08:26:16;;;;;;;0.00;0.00;;;;;;;6.92;65.25;94637.34;5006456;28;20602;-67
2022/12/15 08:28:43;;;;;;;1.20;1.00;;;;;;;7.01;64.26;94643.72;5004809;28;20228;-68
2022/12/15 08:31:16;;;;;;;1.23;1.20;;;;;;;6.85;64.92;94654.97;4993020;28;20229;-67
2022/12/15 08:33:45;;;;;;;1.05;0.95;;;;;;;7.13;65.05;94654.84;5000690;28;20248;-68
2022/12/15 08:36:13;;;;;;;0.75;0.55;;;;;;;6.93;65.97;94664.97;4999323;28;20274;-67
2022/12/15 08:38:41;;;;;;;1.73;1.30;;;;;;;7.25;64.66;94656.56;5000052;28;20194;-67
2022/12/15 08:41:10;;;;;;;2.92;2.30;;;;;;;7.41;64.25;94650.53;5008208;28;20212;-67
2022/12/15 08:43:38;;;;;;;0.00;0.00;;;;;;;7.32;66.39;94657.19;4998984;28;20699;-68
2022/12/15 08:46:15;;;;;;;0.55;0.55;;;;;;;7.63;65.45;94659.13;5004483;28;20232;-67
2022/12/15 08:48:43;;;;;;;0.80;0.75;;;;;;;7.52;65.45;94662.69;5008270;28;20658;-67
2022/12/15 08:51:10;;;;;;;0.65;0.65;;;;;;;7.69;65.11;94666.00;5007859;28;20210;-68
2022/12/15 08:53:38;;;;;;;0.30;0.25;;;;;;;7.81;64.06;94669.28;5001008;28;20182;-67
2022/12/15 08:56:07;;;;;;;0.20;0.20;;;;;;;7.68;64.52;94667.81;5001544;28;20586;-67
2022/12/15 08:58:34;;;;;;;1.60;0.98;;;;;;;7.74;64.28;94682.50;4999155;28;20198;-70
2022/12/15 09:01:06;;;;;;;0.88;0.80;;;;;;;7.55;65.94;94670.78;5001170;28;20882;-68
2022/12/15 09:03:34;;;;;;;0.93;0.90;;;;;;;7.74;65.46;94653.81;4996634;28;20202;-67
2022/12/15 09:06:06;;;;;;;1.25;1.25;;;;;;;7.34;67.18;94660.31;5001995;28;20225;-68
2022/12/15 09:08:34;;;;;;;12.48;5.43;;;;;;;7.61;67.21;94654.16;4999105;28;20693;-68
2022/12/15 09:11:01;;;;;;;6.75;5.18;;;;;;;7.63;66.23;94659.94;4993642;28;20195;-68
2022/12/15 09:13:28;;;;;;;1.88;1.77;;;;;;;7.57;66.11;94647.84;5000677;28;20745;-68
2022/12/15 09:15:56;;;;;;;4.97;3.30;;;;;;;7.13;67.84;94660.03;5003413;28;20618;-67
2022/12/15 09:18:35;;;;;;;5.22;4.63;;;;;;;7.14;68.43;94656.44;5002769;28;20254;-68
2022/12/15 09:21:05;;;;;;;2.85;2.63;;;;;;;7.32;67.19;94659.81;5003197;28;20203;-67
2022/12/15 09:23:32;;;;;;;3.40;2.72;;;;;;;7.83;66.32;94667.19;5001809;28;20205;-68
2022/12/15 09:26:01;;;;;;;4.00;3.47;;;;;;;7.95;65.55;94662.66;5004621;28;20241;-67
2022/12/15 09:28:28;;;;;;;3.17;2.95;;;;;;;7.94;64.93;94645.41;5007284;28;20237;-69
2022/12/15 09:31:23;;;;;;;3.20;2.60;;;;;;;7.65;65.77;94659.69;5010330;28;20216;-68
2022/12/15 09:33:52;;;;;;;6.25;5.05;;;;;;;7.82;65.42;94673.47;5001949;28;20290;-68
2022/12/15 09:36:21;;;;;;;2.47;2.30;;;;;;;7.97;65.49;94679.63;5005782;28;20224;-67
2022/12/15 09:38:49;;;;;;;1.33;1.25;;;;;;;8.11;65.34;94669.63;5006896;28;20208;-68
2022/12/15 09:41:31;;;;;;;1.23;1.13;;;;;;;7.87;66.35;94679.53;4999123;28;20194;-68
2022/12/15 09:44:11;;;;;;;4.50;2.92;;;;;;;8.17;65.80;94674.63;5007294;28;20605;-67
2022/12/15 09:46:55;;;;;;;2.97;2.40;;;;;;;7.98;66.18;94675.22;5001214;28;20217;-68
2022/12/15 09:49:27;;;;;;;3.63;2.72;;;;;;;8.30;65.86;94672.72;4999735;28;20198;-68
2022/12/15 09:52:04;;;;;;;2.35;1.50;;;;;;;8.24;64.51;94664.03;5003682;28;20269;-68
2022/12/15 09:54:37;;;;;;;1.60;1.55;;;;;;;8.11;65.97;94672.22;5000671;28;20201;-69
2022/12/15 09:57:14;;;;;;;0.87;0.87;;;;;;;8.21;64.95;94674.94;4999834;28;20188;-67
2022/12/15 10:00:22;;;;;;;0.77;0.77;;;;;;;8.16;65.82;94682.69;5005001;28;20441;-67
2022/12/15 10:03:08;;;;;;;6.38;2.85;;;;;;;8.22;65.34;94684.34;5004060;28;20195;-68
2022/12/15 10:05:41;;;;;;;3.10;2.05;;;;;;;8.44;64.60;94671.28;5006362;28;20234;-66
2022/12/15 10:08:32;;;;;;;3.03;2.58;;;;;;;8.33;65.45;94667.78;5000576;28;21696;-69
2022/12/15 10:11:00;;;;;;;0.82;0.82;;;;;;;8.32;66.05;94666.19;4998866;28;20201;-69
2022/12/15 10:13:36;;;;;;;3.28;2.08;;;;;;;8.31;66.22;94669.84;5000825;28;20393;-67
2022/12/15 10:16:12;;;;;;;2.50;0.93;;;;;;;8.74;65.35;94664.47;4999392;28;20316;-68
2022/12/15 10:18:51;;;;;;;1.43;1.33;;;;;;;8.43;65.72;94667.88;5004858;28;20589;-68
2022/12/15 10:21:27;;;;;;;0.75;0.75;;;;;;;8.37;64.86;94666.25;5005242;28;20441;-68
2022/12/15 10:27:31;;;;;;;2.72;1.85;;;;;;;8.16;65.89;94675.66;5004702;28;20213;-69
2022/12/15 10:30:07;;;;;;;0.80;0.80;;;;;;;8.15;66.42;94661.06;5000750;28;20190;-67
2022/12/15 10:32:49;;;;;;;1.40;1.05;;;;;;;8.05;66.66;94681.03;5000098;28;20206;-69
2022/12/15 10:35:22;;;;;;;0.97;0.87;;;;;;;7.81;66.69;94684.94;4999375;28;20632;-69
2022/12/15 10:37:48;;;;;;;2.38;1.58;;;;;;;7.83;67.66;94688.06;5004936;28;21157;-70
2022/12/15 10:40:43;;;;;;;0.43;0.43;;;;;;;8.20;66.54;94683.78;5007431;28;20205;-67
2022/12/15 10:43:35;;;;;;;0.73;0.70;;;;;;;8.55;65.59;94686.00;5003594;28;20198;-69
2022/12/15 10:46:18;;;;;;;1.55;1.45;;;;;;;8.37;66.27;94686.34;5006710;28;20287;-69
2022/12/15 10:49:05;;;;;;;6.50;1.40;;;;;;;8.14;66.86;94680.34;5003155;28;20663;-69
2022/12/15 10:51:43;;;;;;;3.03;2.25;;;;;;;8.18;66.23;94660.56;5005248;28;20194;-69
2022/12/15 10:54:13;;;;;;;0.30;0.30;;;;;;;8.57;64.50;94674.28;4999861;28;20212;-70
2022/12/15 10:56:57;;;;;;;0.98;0.88;;;;;;;8.67;64.60;94679.56;5002423;28;20221;-69
2022/12/15 10:59:35;;;;;;;1.97;1.63;;;;;;;8.85;64.53;94687.03;5002450;28;20293;-68
2022/12/15 11:02:35;;;;;;;0.30;0.30;;;;;;;8.40;65.91;94689.25;5000867;28;20441;-69
2022/12/15 11:05:15;;;;;;;0.38;0.38;;;;;;;8.49;65.12;94671.31;5004386;28;20441;-68
2022/12/15 11:07:49;;;;;;;0.00;0.00;;;;;;;8.52;64.94;94689.88;5005621;28;20204;-69
2022/12/15 11:12:50;;;;;;;0.60;0.47;;;;;;;8.84;64.66;94680.25;4997808;28;20483;-70
2022/12/15 11:13:19;;;;;;;0.47;0.47;;;;;;;8.73;64.11;94675.97;5004230;28;20560;-69
2022/12/15 11:15:50;;;;;;;0.77;0.65;;;;;;;8.76;64.99;94672.06;5004184;28;20456;-68
2022/12/15 11:18:37;;;;;;;1.10;1.00;;;;;;;8.94;64.23;94674.31;4999489;28;20221;-69
2022/12/15 11:21:26;;;;;;;8.90;2.63;;;;;;;8.71;64.88;94677.25;5001262;28;20527;-69
2022/12/15 11:24:30;;;;;;;1.13;1.10;;;;;;;8.20;67.51;94673.34;5002567;28;20437;-69
2022/12/15 11:27:07;;;;;;;1.03;0.93;;;;;;;8.30;66.76;94683.16;5004230;28;20546;-69
2022/12/15 11:29:48;;;;;;;0.87;0.87;;;;;;;8.52;65.95;94673.44;5002411;28;20973;-70
2022/12/15 11:32:22;;;;;;;0.70;0.70;;;;;;;8.53;66.56;94683.63;5002419;28;20440;-69
2022/12/15 11:34:49;;;;;;;5.27;2.30;;;;;;;8.93;65.20;94673.53;5002202;28;20445;-69
2022/12/15 11:37:41;;;;;;;0.97;0.97;;;;;;;8.98;63.93;94681.41;5002607;28;20963;-69
2022/12/15 11:40:46;;;;;;;0.40;0.40;;;;;;;8.98;63.75;94699.69;5001091;28;20444;-68
2022/12/15 11:43:43;;;;;;;0.77;0.63;;;;;;;9.38;62.98;94687.97;4999851;28;20823;-69
2022/12/15 11:46:22;;;;;;;8.37;1.53;;;;;;;9.20;62.99;94694.34;5004620;28;20562;-70
2022/12/15 11:49:14;;;;;;;2.70;1.95;;;;;;;9.05;63.89;94705.50;5002897;28;21173;-68
2022/12/15 11:52:04;;;;;;;1.13;1.02;;;;;;;9.01;62.89;94693.97;4996124;28;20289;-69
2022/12/15 11:54:37;;;;;;;0.80;0.60;;;;;;;9.19;63.57;94690.19;5002580;28;20213;-70
2022/12/15 11:57:43;;;;;;;0.50;0.50;;;;;;;9.77;63.62;94699.66;5002858;28;20961;-69
2022/12/15 12:00:15;;;;;;;1.10;1.03;;;;;;;10.92;60.89;94689.53;5005239;28;20445;-69
2022/12/15 12:02:44;;;;;;;2.83;2.63;;;;;;;11.51;58.81;94683.69;5007180;28;20452;-69
2022/12/15 12:05:37;;;;;;;2.47;1.90;;;;;;;12.04;56.80;94693.56;5006495;28;20441;-69
2022/12/15 12:08:13;;;;;;;0.40;0.40;;;;;;;12.17;55.87;94690.34;4998815;28;20440;-68
2022/12/15 12:10:46;;;;;;;1.43;1.33;;;;;;;12.61;55.73;94688.53;5003584;28;20440;-68
2022/12/15 12:13:29;;;;;;;1.90;1.73;;;;;;;11.90;56.20;94695.16;5008251;28;20828;-69
2022/12/15 12:16:17;;;;;;;4.30;3.00;;;;;;;11.94;54.68;94698.81;5007353;28;20911;-69
2022/12/15 12:18:52;;;;;;;0.90;0.90;;;;;;;11.98;56.89;94694.63;4999077;28;20532;-68
2022/12/15 12:21:41;;;;;;;2.20;2.03;;;;;;;12.30;54.24;94687.09;5000143;28;20437;-68
2022/12/15 12:24:15;;;;;;;1.10;1.10;;;;;;;11.76;55.40;94699.41;5002333;28;20447;-70
2022/12/15 12:27:08;;;;;;;0.30;0.30;;;;;;;11.59;57.42;94712.00;5004104;28;20527;-69
2022/12/15 12:29:43;;;;;;;0.50;0.50;;;;;;;12.21;55.96;94688.72;5002341;28;20446;-69
2022/12/15 12:32:14;;;;;;;5.10;3.00;;;;;;;12.63;53.99;94707.44;4998987;28;20470;-69
2022/12/15 12:35:06;;;;;;;2.47;2.27;;;;;;;13.60;52.33;94706.44;5001812;28;20446;-70
2022/12/15 12:38:04;;;;;;;1.20;0.77;;;;;;;14.10;50.31;94716.44;4998877;28;20974;-68
2022/12/15 12:40:39;;;;;;;3.40;3.03;;;;;;;14.07;49.63;94717.00;5004785;28;20467;-69
2022/12/15 12:43:43;;;;;;;2.33;1.63;;;;;;;14.59;50.56;94718.78;4995971;28;20531;-68
2022/12/15 12:46:22;;;;;;;3.03;2.43;;;;;;;14.74;47.24;94715.94;5004123;28;20992;-68
2022/12/15 12:49:16;;;;;;;1.53;1.43;;;;;;;14.43;48.55;94714.78;5006917;28;20452;-68
2022/12/15 12:51:55;;;;;;;0.80;0.80;;;;;;;15.11;47.72;94710.63;5009991;28;20447;-68
2022/12/15 12:54:31;;;;;;;1.43;1.33;;;;;;;15.07;47.29;94703.59;5005379;28;20433;-68
2022/12/15 12:56:58;;;;;;;0.83;0.80;;;;;;;14.30;48.62;94714.66;5005409;28;20451;-68
2022/12/15 12:59:28;;;;;;;4.23;1.87;;;;;;;14.37;48.55;94715.91;5007622;28;20461;-68
2022/12/15 13:02:16;;;;;;;2.87;2.13;;;;;;;12.90;51.52;94723.56;5003987;28;20936;-70
2022/12/15 13:04:49;;;;;;;3.63;2.40;;;;;;;12.71;53.12;94725.28;5008555;28;20449;-69
2022/12/15 13:07:35;;;;;;;1.97;1.53;;;;;;;12.39;52.74;94740.66;4998708;28;20488;-68
2022/12/15 13:10:10;;;;;;;7.17;2.77;;;;;;;12.89;52.42;94732.53;4997396;28;20766;-69
2022/12/15 13:12:40;;;;;;;7.73;3.47;;;;;;;12.20;53.85;94739.72;5004574;28;20543;-68
2022/12/15 13:15:22;;;;;;;1.73;1.63;;;;;;;12.93;51.82;94728.28;5006929;28;20492;-69
2022/12/15 13:17:53;;;;;;;4.27;3.37;;;;;;;12.33;53.81;94723.38;5001663;28;20547;-68
2022/12/15 13:20:27;;;;;;;1.83;1.73;;;;;;;11.76;54.58;94738.78;4998804;28;20455;-69
2022/12/15 13:22:55;;;;;;;1.87;1.47;;;;;;;11.99;54.56;94738.97;5002851;28;20527;-68
2022/12/15 13:25:40;;;;;;;6.23;2.87;;;;;;;11.87;55.91;94748.22;4994566;28;20564;-68
2022/12/15 13:28:35;;;;;;;2.07;1.97;;;;;;;11.63;55.94;94747.97;5005955;28;20455;-68
2022/12/15 13:31:19;;;;;;;2.70;2.40;;;;;;;11.67;55.37;94750.88;4998133;28;20445;-68
2022/12/15 13:33:51;;;;;;;3.10;2.73;;;;;;;11.58;55.81;94747.19;4992257;28;20889;-68
2022/12/15 13:36:36;;;;;;;0.90;0.87;;;;;;;11.00;57.27;94728.31;5001527;28;20452;-68
2022/12/15 13:39:15;;;;;;;2.10;1.23;;;;;;;11.03;57.86;94751.41;5005548;28;20579;-68
2022/12/15 13:41:45;;;;;;;2.73;2.30;;;;;;;10.96;56.98;94757.94;5004533;28;20448;-68
2022/12/15 13:44:38;;;;;;;6.20;2.10;;;;;;;11.24;56.74;94758.22;5009423;28;20554;-68
2022/12/15 13:47:11;;;;;;;1.07;0.83;;;;;;;10.91;57.49;94758.72;5006397;28;20489;-69
2022/12/15 13:49:50;;;;;;;3.33;1.87;;;;;;;11.03;56.73;94761.88;4997810;28;20455;-68
2022/12/15 13:52:33;;;;;;;2.00;1.20;;;;;;;11.09;57.07;94771.31;5005225;28;20862;-68
2022/12/15 13:55:31;;;;;;;0.73;0.73;;;;;;;10.97;57.45;94767.38;5006568;28;20452;-68
2022/12/15 13:58:04;;;;;;;1.53;1.43;;;;;;;11.02;57.03;94770.78;5003584;28;20947;-69
2022/12/15 14:00:31;;;;;;;1.17;1.13;;;;;;;11.01;56.93;94768.44;5000691;28;20885;-68
2022/12/15 14:03:06;;;;;;;10.70;4.23;;;;;;;10.78;57.87;94768.94;4997710;28;20802;-68
2022/12/15 14:05:33;;;;;;;3.57;1.87;;;;;;;10.54;58.57;94781.72;4997559;28;20464;-69
2022/12/15 14:08:02;;;;;;;2.67;1.30;;;;;;;10.67;58.13;94777.81;5014389;28;20503;-67
2022/12/15 14:10:33;;;;;;;1.53;1.43;;;;;;;10.83;57.51;94776.78;5015282;28;20457;-67
2022/12/15 14:13:24;;;;;;;0.77;0.77;;;;;;;10.54;58.01;94789.56;5025746;28;20469;-69
2022/12/15 14:15:58;;;;;;;2.23;2.03;;;;;;;10.70;57.92;94798.25;5018452;28;20452;-69
2022/12/15 14:18:33;;;;;;;0.80;0.80;;;;;;;10.77;57.31;94794.34;5023529;28;20449;-68
2022/12/15 14:21:05;;;;;;;2.00;1.90;;;;;;;10.73;57.49;94801.13;5003385;28;20521;-69
2022/12/15 14:23:43;;;;;;;5.27;2.27;;;;;;;10.70;56.99;94798.25;5001373;28;20450;-68
2022/12/15 14:26:30;;;;;;;0.73;0.73;;;;;;;10.22;58.92;94807.22;5007860;28;20468;-69
2022/12/15 14:29:03;;;;;;;4.40;2.83;;;;;;;10.32;58.44;94811.72;5006046;28;20464;-68
2022/12/15 14:31:31;;;;;;;1.77;1.63;;;;;;;10.08;59.01;94806.09;5002061;28;20488;-68
2022/12/15 14:34:05;;;;;;;1.33;1.23;;;;;;;10.22;58.83;94820.31;5001965;28;20456;-69